sensor_id;sensor_type;location;lat;lon;timestamp;pressure;altitude;pressure_sealevel;temperature;humidity
10700;BME280;5401;41.986;21.452;2023-05-01T00:00:26;98350.31;;;14.74;58.75
10700;BME280;5401;41.986;21.452;2023-05-01T00:02:55;98346.22;;;14.72;58.89
10700;BME280;5401;41.986;21.452;2023-05-01T00:05:22;98361.94;;;14.75;58.76
10700;BME280;5401;41.986;21.452;2023-05-01T00:07:53;98361.59;;;14.71;58.79
10700;BME280;5401;41.986;21.452;2023-05-01T00:10:21;98358.31;;;14.69;58.95
10700;BME280;5401;41.986;21.452;2023-05-01T00:12:48;98356.19;;;14.71;58.68
10700;BME280;5401;41.986;21.452;2023-05-01T00:15:17;98351.53;;;14.67;59.01
10700;BME280;5401;41.986;21.452;2023-05-01T00:17:44;98365.81;;;14.67;59.00
10700;BME280;5401;41.986;21.452;2023-05-01T00:20:13;98354.22;;;14.67;59.84
10700;BME280;5401;41.986;21.452;2023-05-01T00:22:41;98360.66;;;14.66;59.52
10700;BME280;5401;41.986;21.452;2023-05-01T00:25:08;98354.44;;;14.65;59.72
10700;BME280;5401;41.986;21.452;2023-05-01T00:27:36;98360.19;;;14.58;59.30
10700;BME280;5401;41.986;21.452;2023-05-01T00:30:05;98359.66;;;14.44;59.52
10700;BME280;5401;41.986;21.452;2023-05-01T00:32:33;98359.44;;;14.34;60.54
10700;BME280;5401;41.986;21.452;2023-05-01T00:35:00;98353.00;;;14.24;60.48
10700;BME280;5401;41.986;21.452;2023-05-01T00:37:29;98356.75;;;14.23;60.31
10700;BME280;5401;41.986;21.452;2023-05-01T00:39:57;98357.53;;;14.24;61.28
10700;BME280;5401;41.986;21.452;2023-05-01T00:42:24;98373.84;;;14.28;61.25
10700;BME280;5401;41.986;21.452;2023-05-01T00:44:52;98377.94;;;14.31;61.36
10700;BME280;5401;41.986;21.452;2023-05-01T00:47:19;98375.47;;;14.29;61.37
10700;BME280;5401;41.986;21.452;2023-05-01T00:49:48;98368.91;;;14.26;60.97
10700;BME280;5401;41.986;21.452;2023-05-01T00:52:16;98373.25;;;14.27;61.55
10700;BME280;5401;41.986;21.452;2023-05-01T00:54:45;98370.34;;;14.28;60.97
10700;BME280;5401;41.986;21.452;2023-05-01T00:57:17;98376.53;;;14.28;61.68
10700;BME280;5401;41.986;21.452;2023-05-01T00:59:44;98370.66;;;14.31;61.05
10700;BME280;5401;41.986;21.452;2023-05-01T01:02:12;98373.13;;;14.33;61.70
10700;BME280;5401;41.986;21.452;2023-05-01T01:04:42;98382.81;;;14.34;61.67
10700;BME280;5401;41.986;21.452;2023-05-01T01:07:18;98389.66;;;14.36;61.69
10700;BME280;5401;41.986;21.452;2023-05-01T01:10:03;98380.13;;;14.34;61.60
10700;BME280;5401;41.986;21.452;2023-05-01T01:12:38;98384.47;;;14.35;61.96
10700;BME280;5401;41.986;21.452;2023-05-01T01:15:17;98373.47;;;14.36;61.94
10700;BME280;5401;41.986;21.452;2023-05-01T01:17:54;98359.44;;;14.23;62.05
10700;BME280;5401;41.986;21.452;2023-05-01T01:20:31;98384.38;;;14.30;61.38
10700;BME280;5401;41.986;21.452;2023-05-01T01:26:12;98385.66;;;14.16;61.40
10700;BME280;5401;41.986;21.452;2023-05-01T01:28:56;98394.63;;;13.99;62.64
10700;BME280;5401;41.986;21.452;2023-05-01T01:31:32;98388.88;;;13.84;62.92
10700;BME280;5401;41.986;21.452;2023-05-01T01:34:12;98396.47;;;13.76;63.48
10700;BME280;5401;41.986;21.452;2023-05-01T01:36:46;98394.97;;;13.80;62.48
10700;BME280;5401;41.986;21.452;2023-05-01T01:39:23;98387.22;;;13.83;62.60
10700;BME280;5401;41.986;21.452;2023-05-01T01:41:53;98392.16;;;13.86;63.40
10700;BME280;5401;41.986;21.452;2023-05-01T01:44:29;98393.34;;;13.90;63.41
10700;BME280;5401;41.986;21.452;2023-05-01T01:47:01;98383.16;;;13.92;63.06
10700;BME280;5401;41.986;21.452;2023-05-01T01:49:34;98370.28;;;13.83;63.24
10700;BME280;5401;41.986;21.452;2023-05-01T01:52:04;98383.75;;;13.94;63.61
10700;BME280;5401;41.986;21.452;2023-05-01T01:54:37;98383.75;;;13.94;63.27
10700;BME280;5401;41.986;21.452;2023-05-01T01:57:07;98385.59;;;13.93;62.77
10700;BME280;5401;41.986;21.452;2023-05-01T01:59:39;98378.22;;;13.89;63.50
10700;BME280;5401;41.986;21.452;2023-05-01T02:02:08;98384.19;;;13.80;63.37
10700;BME280;5401;41.986;21.452;2023-05-01T02:04:38;98378.75;;;13.57;63.60
10700;BME280;5401;41.986;21.452;2023-05-01T02:07:10;98377.34;;;13.43;64.39
10700;BME280;5401;41.986;21.452;2023-05-01T02:09:38;98378.09;;;13.32;63.91
10700;BME280;5401;41.986;21.452;2023-05-01T02:12:07;98389.94;;;13.31;65.03
10700;BME280;5401;41.986;21.452;2023-05-01T02:14:36;98383.94;;;13.29;64.85
10700;BME280;5401;41.986;21.452;2023-05-01T02:17:04;98386.28;;;13.26;65.68
10700;BME280;5401;41.986;21.452;2023-05-01T02:19:33;98384.53;;;13.31;64.68
10700;BME280;5401;41.986;21.452;2023-05-01T02:22:03;98382.19;;;13.35;65.39
10700;BME280;5401;41.986;21.452;2023-05-01T02:24:31;98386.91;;;13.39;64.60
10700;BME280;5401;41.986;21.452;2023-05-01T02:27:06;98380.47;;;13.40;64.63
10700;BME280;5401;41.986;21.452;2023-05-01T02:29:34;98387.25;;;13.43;65.65
10700;BME280;5401;41.986;21.452;2023-05-01T02:32:02;98395.91;;;13.45;65.41
10700;BME280;5401;41.986;21.452;2023-05-01T02:34:33;98388.75;;;13.39;66.05
10700;BME280;5401;41.986;21.452;2023-05-01T02:37:03;98385.34;;;13.32;66.19
10700;BME280;5401;41.986;21.452;2023-05-01T02:39:32;98392.72;;;13.25;66.03
10700;BME280;5401;41.986;21.452;2023-05-01T02:42:01;98395.03;;;13.21;65.11
10700;BME280;5401;41.986;21.452;2023-05-01T02:44:34;98404.44;;;13.13;66.52
10700;BME280;5401;41.986;21.452;2023-05-01T02:47:05;98393.56;;;13.08;66.30
10700;BME280;5401;41.986;21.452;2023-05-01T02:49:34;98402.81;;;13.12;66.31
10700;BME280;5401;41.986;21.452;2023-05-01T02:52:04;98400.56;;;13.09;66.50
10700;BME280;5401;41.986;21.452;2023-05-01T02:54:32;98408.50;;;13.04;66.41
10700;BME280;5401;41.986;21.452;2023-05-01T02:57:02;98400.22;;;13.05;67.15
10700;BME280;5401;41.986;21.452;2023-05-01T02:59:30;98408.88;;;13.07;66.95
10700;BME280;5401;41.986;21.452;2023-05-01T03:01:58;98404.09;;;13.09;66.40
10700;BME280;5401;41.986;21.452;2023-05-01T03:04:25;98394.97;;;13.10;67.21
10700;BME280;5401;41.986;21.452;2023-05-01T03:06:53;98395.56;;;13.12;66.86
10700;BME280;5401;41.986;21.452;2023-05-01T03:09:23;98404.75;;;13.05;66.85
10700;BME280;5401;41.986;21.452;2023-05-01T03:11:51;98401.94;;;13.00;67.74
10700;BME280;5401;41.986;21.452;2023-05-01T03:14:19;98404.63;;;13.00;66.59
10700;BME280;5401;41.986;21.452;2023-05-01T03:16:46;98398.56;;;13.04;67.41
10700;BME280;5401;41.986;21.452;2023-05-01T03:19:14;98400.22;;;13.05;67.68
10700;BME280;5401;41.986;21.452;2023-05-01T03:21:41;98406.28;;;13.01;67.82
10700;BME280;5401;41.986;21.452;2023-05-01T03:24:09;98399.13;;;12.95;67.36
10700;BME280;5401;41.986;21.452;2023-05-01T03:26:38;98408.88;;;12.89;67.45
10700;BME280;5401;41.986;21.452;2023-05-01T03:29:05;98416.50;;;12.75;68.78
10700;BME280;5401;41.986;21.452;2023-05-01T03:31:33;98402.38;;;12.61;69.01
10700;BME280;5401;41.986;21.452;2023-05-01T03:34:01;98403.44;;;12.60;69.57
10700;BME280;5401;41.986;21.452;2023-05-01T03:36:28;98396.88;;;12.56;70.19
10700;BME280;5401;41.986;21.452;2023-05-01T03:38:58;98409.84;;;12.59;70.32
10700;BME280;5401;41.986;21.452;2023-05-01T03:41:26;98413.34;;;12.78;69.38
10700;BME280;5401;41.986;21.452;2023-05-01T03:43:55;98423.06;;;12.96;68.88
10700;BME280;5401;41.986;21.452;2023-05-01T03:46:25;98417.72;;;13.25;69.08
10700;BME280;5401;41.986;21.452;2023-05-01T03:48:52;98410.44;;;13.55;68.55
10700;BME280;5401;41.986;21.452;2023-05-01T03:51:20;98417.47;;;13.56;67.49
10700;BME280;5401;41.986;21.452;2023-05-01T03:53:47;98416.13;;;13.47;67.86
10700;BME280;5401;41.986;21.452;2023-05-01T03:56:16;98419.91;;;13.46;67.87
10700;BME280;5401;41.986;21.452;2023-05-01T03:58:43;98423.66;;;13.56;68.49
10700;BME280;5401;41.986;21.452;2023-05-01T04:01:12;98420.22;;;13.67;68.21
10700;BME280;5401;41.986;21.452;2023-05-01T04:03:40;98426.66;;;13.78;67.99
10700;BME280;5401;41.986;21.452;2023-05-01T04:06:07;98434.41;;;13.86;67.86
10700;BME280;5401;41.986;21.452;2023-05-01T04:08:35;98440.50;;;13.92;67.12
10700;BME280;5401;41.986;21.452;2023-05-01T04:11:03;98434.59;;;14.47;66.87
10700;BME280;5401;41.986;21.452;2023-05-01T04:13:31;98431.75;;;15.38;64.84
10700;BME280;5401;41.986;21.452;2023-05-01T04:15:59;98441.38;;;16.22;63.89
10700;BME280;5401;41.986;21.452;2023-05-01T04:18:27;98436.66;;;17.20;62.07
10700;BME280;5401;41.986;21.452;2023-05-01T04:20:55;98440.75;;;18.22;59.70
10700;BME280;5401;41.986;21.452;2023-05-01T04:23:22;98430.19;;;18.97;58.00
10700;BME280;5401;41.986;21.452;2023-05-01T04:25:50;98433.47;;;19.75;56.09
10700;BME280;5401;41.986;21.452;2023-05-01T04:28:17;98433.03;;;20.37;55.03
10700;BME280;5401;41.986;21.452;2023-05-01T04:30:45;98425.59;;;21.11;54.06
10700;BME280;5401;41.986;21.452;2023-05-01T04:33:12;98433.59;;;21.61;52.34
10700;BME280;5401;41.986;21.452;2023-05-01T04:35:41;98432.25;;;22.01;51.92
10700;BME280;5401;41.986;21.452;2023-05-01T04:38:08;98435.06;;;22.34;50.94
10700;BME280;5401;41.986;21.452;2023-05-01T04:40:36;98444.22;;;22.76;50.20
10700;BME280;5401;41.986;21.452;2023-05-01T04:43:04;98445.91;;;22.72;49.56
10700;BME280;5401;41.986;21.452;2023-05-01T04:45:31;98445.97;;;23.19;49.40
10700;BME280;5401;41.986;21.452;2023-05-01T04:47:59;98459.38;;;23.43;48.43
10700;BME280;5401;41.986;21.452;2023-05-01T04:50:26;98454.69;;;23.21;48.48
10700;BME280;5401;41.986;21.452;2023-05-01T04:52:55;98453.25;;;23.05;48.37
10700;BME280;5401;41.986;21.452;2023-05-01T04:55:24;98465.19;;;22.86;48.37
10700;BME280;5401;41.986;21.452;2023-05-01T04:57:51;98470.84;;;22.61;48.56
10700;BME280;5401;41.986;21.452;2023-05-01T05:00:19;98466.34;;;22.42;48.21
10700;BME280;5401;41.986;21.452;2023-05-01T05:02:46;98469.47;;;22.30;48.98
10700;BME280;5401;41.986;21.452;2023-05-01T05:05:14;98471.88;;;22.32;49.13
10700;BME280;5401;41.986;21.452;2023-05-01T05:07:41;98477.88;;;22.34;48.52
10700;BME280;5401;41.986;21.452;2023-05-01T05:10:10;98477.91;;;22.29;48.96
10700;BME280;5401;41.986;21.452;2023-05-01T05:12:38;98476.38;;;22.18;48.86
10700;BME280;5401;41.986;21.452;2023-05-01T05:15:06;98467.25;;;22.32;49.21
10700;BME280;5401;41.986;21.452;2023-05-01T05:17:34;98475.41;;;22.37;48.71
10700;BME280;5401;41.986;21.452;2023-05-01T05:20:01;98477.47;;;22.12;48.89
10700;BME280;5401;41.986;21.452;2023-05-01T05:22:29;98486.38;;;22.27;49.43
10700;BME280;5401;41.986;21.452;2023-05-01T05:24:56;98486.00;;;22.44;49.25
10700;BME280;5401;41.986;21.452;2023-05-01T05:27:30;98490.22;;;22.64;48.89
10700;BME280;5401;41.986;21.452;2023-05-01T05:30:01;98484.09;;;22.77;48.50
10700;BME280;5401;41.986;21.452;2023-05-01T05:32:29;98486.47;;;22.89;48.39
10700;BME280;5401;41.986;21.452;2023-05-01T05:34:56;98493.50;;;22.61;48.00
10700;BME280;5401;41.986;21.452;2023-05-01T05:37:24;98472.28;;;22.11;48.53
10700;BME280;5401;41.986;21.452;2023-05-01T05:39:51;98482.94;;;22.07;48.87
10700;BME280;5401;41.986;21.452;2023-05-01T05:42:19;98480.66;;;22.29;49.12
10700;BME280;5401;41.986;21.452;2023-05-01T05:44:48;98497.47;;;22.41;48.70
10700;BME280;5401;41.986;21.452;2023-05-01T05:47:15;98501.69;;;22.61;48.29
10700;BME280;5401;41.986;21.452;2023-05-01T05:49:43;98494.09;;;22.54;48.10
10700;BME280;5401;41.986;21.452;2023-05-01T05:52:10;98506.91;;;22.15;47.81
10700;BME280;5401;41.986;21.452;2023-05-01T05:54:38;98501.53;;;21.95;47.56
10700;BME280;5401;41.986;21.452;2023-05-01T05:57:06;98508.53;;;21.63;48.11
10700;BME280;5401;41.986;21.452;2023-05-01T05:59:33;98516.22;;;21.47;47.88
10700;BME280;5401;41.986;21.452;2023-05-01T06:02:03;98515.97;;;21.43;48.36
10700;BME280;5401;41.986;21.452;2023-05-01T06:04:30;98518.28;;;21.69;48.00
10700;BME280;5401;41.986;21.452;2023-05-01T06:06:58;98527.41;;;22.08;47.83
10700;BME280;5401;41.986;21.452;2023-05-01T06:09:25;98518.06;;;22.23;46.79
10700;BME280;5401;41.986;21.452;2023-05-01T06:11:53;98512.38;;;22.20;47.57
10700;BME280;5401;41.986;21.452;2023-05-01T06:14:20;98525.47;;;22.56;46.34
10700;BME280;5401;41.986;21.452;2023-05-01T06:16:48;98518.94;;;22.52;46.75
10700;BME280;5401;41.986;21.452;2023-05-01T06:19:17;98518.47;;;22.78;46.67
10700;BME280;5401;41.986;21.452;2023-05-01T06:21:44;98526.25;;;22.94;46.06
10700;BME280;5401;41.986;21.452;2023-05-01T06:24:12;98507.25;;;22.80;46.12
10700;BME280;5401;41.986;21.452;2023-05-01T06:26:40;98512.91;;;22.93;45.99
10700;BME280;5401;41.986;21.452;2023-05-01T06:29:08;98520.78;;;23.27;45.92
10700;BME280;5401;41.986;21.452;2023-05-01T06:31:35;98515.50;;;23.82;45.21
10700;BME280;5401;41.986;21.452;2023-05-01T06:34:03;98515.84;;;24.17;44.71
10700;BME280;5401;41.986;21.452;2023-05-01T06:36:32;98523.50;;;24.57;43.97
10700;BME280;5401;41.986;21.452;2023-05-01T06:38:59;98524.22;;;24.80;43.84
10700;BME280;5401;41.986;21.452;2023-05-01T06:41:27;98523.72;;;25.10;43.50
10700;BME280;5401;41.986;21.452;2023-05-01T06:43:54;98524.28;;;25.39;43.32
10700;BME280;5401;41.986;21.452;2023-05-01T06:46:22;98526.00;;;25.66;42.60
10700;BME280;5401;41.986;21.452;2023-05-01T06:48:49;98533.81;;;25.59;42.43
10700;BME280;5401;41.986;21.452;2023-05-01T06:51:16;98529.13;;;25.15;43.05
10700;BME280;5401;41.986;21.452;2023-05-01T06:53:45;98524.16;;;25.17;42.73
10700;BME280;5401;41.986;21.452;2023-05-01T06:56:13;98518.31;;;25.37;42.52
10700;BME280;5401;41.986;21.452;2023-05-01T06:58:40;98524.84;;;25.67;42.36
10700;BME280;5401;41.986;21.452;2023-05-01T07:01:08;98519.19;;;26.04;41.79
10700;BME280;5401;41.986;21.452;2023-05-01T07:03:35;98532.97;;;26.39;41.61
10700;BME280;5401;41.986;21.452;2023-05-01T07:06:03;98515.03;;;26.54;41.37
10700;BME280;5401;41.986;21.452;2023-05-01T07:08:31;98518.50;;;26.82;41.00
10700;BME280;5401;41.986;21.452;2023-05-01T07:11:02;98516.34;;;27.00;40.52
10700;BME280;5401;41.986;21.452;2023-05-01T07:13:29;98520.94;;;26.83;40.45
10700;BME280;5401;41.986;21.452;2023-05-01T07:15:57;98524.13;;;26.63;40.97
10700;BME280;5401;41.986;21.452;2023-05-01T07:18:24;98530.31;;;26.34;40.59
10700;BME280;5401;41.986;21.452;2023-05-01T07:20:52;98520.19;;;25.94;41.32
10700;BME280;5401;41.986;21.452;2023-05-01T07:23:20;98523.56;;;25.78;41.39
10700;BME280;5401;41.986;21.452;2023-05-01T07:25:48;98526.28;;;26.05;41.06
10700;BME280;5401;41.986;21.452;2023-05-01T07:28:17;98527.13;;;26.53;40.86
10700;BME280;5401;41.986;21.452;2023-05-01T07:30:46;98530.78;;;26.84;40.42
10700;BME280;5401;41.986;21.452;2023-05-01T07:33:14;98524.28;;;27.24;39.89
10700;BME280;5401;41.986;21.452;2023-05-01T07:35:41;98519.97;;;27.31;39.32
10700;BME280;5401;41.986;21.452;2023-05-01T07:38:09;98518.69;;;27.37;39.49
10700;BME280;5401;41.986;21.452;2023-05-01T07:40:37;98519.59;;;27.24;39.45
10700;BME280;5401;41.986;21.452;2023-05-01T07:43:04;98525.94;;;26.68;39.99
10700;BME280;5401;41.986;21.452;2023-05-01T07:45:33;98512.97;;;25.98;40.32
10700;BME280;5401;41.986;21.452;2023-05-01T07:48:01;98523.84;;;25.77;40.80
10700;BME280;5401;41.986;21.452;2023-05-01T07:50:29;98519.84;;;25.43;41.31
10700;BME280;5401;41.986;21.452;2023-05-01T07:52:56;98520.91;;;25.60;41.13
10700;BME280;5401;41.986;21.452;2023-05-01T07:55:24;98517.66;;;25.58;40.66
10700;BME280;5401;41.986;21.452;2023-05-01T07:57:52;98524.16;;;25.62;40.98
10700;BME280;5401;41.986;21.452;2023-05-01T08:00:19;98517.47;;;25.68;40.88
10700;BME280;5401;41.986;21.452;2023-05-01T08:02:56;98517.66;;;25.98;40.05
10700;BME280;5401;41.986;21.452;2023-05-01T08:05:23;98516.69;;;26.16;40.18
10700;BME280;5401;41.986;21.452;2023-05-01T08:07:51;98507.28;;;26.08;40.07
10700;BME280;5401;41.986;21.452;2023-05-01T08:10:19;98505.53;;;26.12;39.93
10700;BME280;5401;41.986;21.452;2023-05-01T08:12:46;98518.81;;;26.32;39.10
10700;BME280;5401;41.986;21.452;2023-05-01T08:15:14;98514.44;;;26.66;39.32
10700;BME280;5401;41.986;21.452;2023-05-01T08:17:41;98512.25;;;26.90;38.96
10700;BME280;5401;41.986;21.452;2023-05-01T08:20:12;98505.69;;;26.99;38.73
10700;BME280;5401;41.986;21.452;2023-05-01T08:22:39;98497.06;;;26.92;38.40
10700;BME280;5401;41.986;21.452;2023-05-01T08:25:07;98493.72;;;26.60;39.06
10700;BME280;5401;41.986;21.452;2023-05-01T08:27:34;98502.09;;;26.55;38.72
10700;BME280;5401;41.986;21.452;2023-05-01T08:30:02;98502.97;;;26.64;38.60
10700;BME280;5401;41.986;21.452;2023-05-01T08:32:30;98502.91;;;26.77;38.50
10700;BME280;5401;41.986;21.452;2023-05-01T08:34:58;98502.41;;;26.75;38.48
10700;BME280;5401;41.986;21.452;2023-05-01T08:37:27;98500.84;;;26.61;38.98
10700;BME280;5401;41.986;21.452;2023-05-01T08:39:54;98499.47;;;26.72;38.85
10700;BME280;5401;41.986;21.452;2023-05-01T08:42:22;98489.47;;;26.89;38.30
10700;BME280;5401;41.986;21.452;2023-05-01T08:44:50;98499.72;;;27.27;38.41
10700;BME280;5401;41.986;21.452;2023-05-01T08:47:20;98464.38;;;27.42;37.80
10700;BME280;5401;41.986;21.452;2023-05-01T08:49:49;98492.09;;;27.93;37.75
10700;BME280;5401;41.986;21.452;2023-05-01T08:52:19;98490.13;;;27.93;37.53
10700;BME280;5401;41.986;21.452;2023-05-01T08:54:50;98485.50;;;28.02;37.13
10700;BME280;5401;41.986;21.452;2023-05-01T08:57:20;98483.44;;;28.16;37.34
10700;BME280;5401;41.986;21.452;2023-05-01T08:59:49;98489.44;;;28.26;37.08
10700;BME280;5401;41.986;21.452;2023-05-01T09:02:18;98483.75;;;28.23;36.91
10700;BME280;5401;41.986;21.452;2023-05-01T09:04:48;98488.28;;;28.19;37.14
10700;BME280;5401;41.986;21.452;2023-05-01T09:07:17;98482.78;;;28.10;37.06
10700;BME280;5401;41.986;21.452;2023-05-01T09:09:45;98484.25;;;28.25;36.64
10700;BME280;5401;41.986;21.452;2023-05-01T09:12:19;98477.88;;;28.07;36.69
10700;BME280;5401;41.986;21.452;2023-05-01T09:14:48;98472.56;;;28.19;36.63
10700;BME280;5401;41.986;21.452;2023-05-01T09:17:16;98475.00;;;28.12;36.22
10700;BME280;5401;41.986;21.452;2023-05-01T09:19:44;98477.66;;;27.40;36.84
10700;BME280;5401;41.986;21.452;2023-05-01T09:22:12;98475.75;;;27.19;36.83
10700;BME280;5401;41.986;21.452;2023-05-01T09:24:39;98463.28;;;27.22;36.62
10700;BME280;5401;41.986;21.452;2023-05-01T09:27:07;98455.53;;;27.24;36.76
10700;BME280;5401;41.986;21.452;2023-05-01T09:29:41;98451.50;;;27.21;36.58
10700;BME280;5401;41.986;21.452;2023-05-01T09:32:12;98453.47;;;27.29;36.74
10700;BME280;5401;41.986;21.452;2023-05-01T09:34:41;98450.53;;;27.56;35.98
10700;BME280;5401;41.986;21.452;2023-05-01T09:37:11;98443.97;;;27.73;35.67
10700;BME280;5401;41.986;21.452;2023-05-01T09:39:40;98447.16;;;27.67;35.93
10700;BME280;5401;41.986;21.452;2023-05-01T09:42:07;98447.84;;;27.81;35.89
10700;BME280;5401;41.986;21.452;2023-05-01T09:44:42;98449.06;;;27.20;35.64
10700;BME280;5401;41.986;21.452;2023-05-01T09:47:11;98449.09;;;26.19;36.12
10700;BME280;5401;41.986;21.452;2023-05-01T09:49:46;98438.72;;;25.68;36.95
10700;BME280;5401;41.986;21.452;2023-05-01T09:52:14;98436.38;;;25.75;36.83
10700;BME280;5401;41.986;21.452;2023-05-01T09:54:42;98421.47;;;25.68;36.94
10700;BME280;5401;41.986;21.452;2023-05-01T09:57:09;98428.75;;;25.19;36.87
10700;BME280;5401;41.986;21.452;2023-05-01T09:59:37;98419.31;;;25.25;37.34
10700;BME280;5401;41.986;21.452;2023-05-01T10:02:06;98423.16;;;25.50;37.21
10700;BME280;5401;41.986;21.452;2023-05-01T10:04:34;98419.59;;;25.77;36.57
10700;BME280;5401;41.986;21.452;2023-05-01T10:07:12;98412.13;;;26.04;36.62
10700;BME280;5401;41.986;21.452;2023-05-01T10:09:40;98418.56;;;26.34;36.01
10700;BME280;5401;41.986;21.452;2023-05-01T10:12:08;98412.31;;;26.20;35.82
10700;BME280;5401;41.986;21.452;2023-05-01T10:14:49;98390.34;;;26.20;36.28
10700;BME280;5401;41.986;21.452;2023-05-01T10:17:18;98410.38;;;26.43;36.15
10700;BME280;5401;41.986;21.452;2023-05-01T10:19:46;98410.56;;;26.11;35.99
10700;BME280;5401;41.986;21.452;2023-05-01T10:22:14;98413.22;;;25.68;36.21
10700;BME280;5401;41.986;21.452;2023-05-01T10:24:42;98408.00;;;25.53;36.50
10700;BME280;5401;41.986;21.452;2023-05-01T10:27:11;98407.03;;;25.62;36.75
10700;BME280;5401;41.986;21.452;2023-05-01T10:29:39;98386.88;;;25.80;36.48
10700;BME280;5401;41.986;21.452;2023-05-01T10:32:08;98391.25;;;26.16;36.19
10700;BME280;5401;41.986;21.452;2023-05-01T10:34:42;98401.09;;;26.30;35.58
10700;BME280;5401;41.986;21.452;2023-05-01T10:37:17;98383.72;;;26.21;36.01
10700;BME280;5401;41.986;21.452;2023-05-01T10:39:45;98393.22;;;26.37;35.50
10700;BME280;5401;41.986;21.452;2023-05-01T10:42:13;98389.53;;;26.63;35.80
10700;BME280;5401;41.986;21.452;2023-05-01T10:44:42;98377.72;;;26.85;35.85
10700;BME280;5401;41.986;21.452;2023-05-01T10:47:43;98393.56;;;26.66;35.24
10700;BME280;5401;41.986;21.452;2023-05-01T10:50:12;98369.69;;;26.10;35.53
10700;BME280;5401;41.986;21.452;2023-05-01T10:53:15;98382.94;;;26.08;35.49
10700;BME280;5401;41.986;21.452;2023-05-01T10:55:43;98373.03;;;25.85;36.22
10700;BME280;5401;41.986;21.452;2023-05-01T10:58:12;98368.91;;;25.74;35.82
10700;BME280;5401;41.986;21.452;2023-05-01T11:00:40;98377.47;;;25.46;36.16
10700;BME280;5401;41.986;21.452;2023-05-01T11:06:12;98370.09;;;26.17;35.55
10700;BME280;5401;41.986;21.452;2023-05-01T11:08:40;98370.81;;;26.44;35.65
10700;BME280;5401;41.986;21.452;2023-05-01T11:11:45;98372.09;;;26.68;35.61
10700;BME280;5401;41.986;21.452;2023-05-01T11:14:14;98361.09;;;26.68;34.77
10700;BME280;5401;41.986;21.452;2023-05-01T11:16:45;98369.88;;;26.78;34.69
10700;BME280;5401;41.986;21.452;2023-05-01T11:19:44;98365.25;;;26.57;35.14
10700;BME280;5401;41.986;21.452;2023-05-01T11:22:15;98355.91;;;26.36;34.82
10700;BME280;5401;41.986;21.452;2023-05-01T11:24:44;98359.28;;;26.33;34.67
10700;BME280;5401;41.986;21.452;2023-05-01T11:27:13;98362.41;;;26.40;35.22
10700;BME280;5401;41.986;21.452;2023-05-01T11:29:45;98361.47;;;26.45;34.84
10700;BME280;5401;41.986;21.452;2023-05-01T11:32:18;98370.94;;;26.39;34.56
10700;BME280;5401;41.986;21.452;2023-05-01T11:34:47;98364.53;;;26.08;34.71
10700;BME280;5401;41.986;21.452;2023-05-01T11:37:17;98363.41;;;26.09;35.48
10700;BME280;5401;41.986;21.452;2023-05-01T11:39:49;98349.78;;;25.82;35.45
10700;BME280;5401;41.986;21.452;2023-05-01T11:42:19;98350.75;;;25.65;35.24
10700;BME280;5401;41.986;21.452;2023-05-01T11:45:07;98345.94;;;25.83;35.80
10700;BME280;5401;41.986;21.452;2023-05-01T11:47:36;98345.78;;;25.53;35.46
10700;BME280;5401;41.986;21.452;2023-05-01T11:50:05;98346.81;;;25.44;35.72
10700;BME280;5401;41.986;21.452;2023-05-01T11:52:42;98341.84;;;25.59;35.95
10700;BME280;5401;41.986;21.452;2023-05-01T11:55:10;98336.56;;;25.84;35.64
10700;BME280;5401;41.986;21.452;2023-05-01T11:57:48;98337.59;;;26.10;35.83
10700;BME280;5401;41.986;21.452;2023-05-01T12:00:25;98339.25;;;25.76;35.22
10700;BME280;5401;41.986;21.452;2023-05-01T12:02:57;98331.16;;;25.44;36.08
10700;BME280;5401;41.986;21.452;2023-05-01T12:05:25;98329.13;;;25.50;35.85
10700;BME280;5401;41.986;21.452;2023-05-01T12:08:10;98333.56;;;25.73;35.74
10700;BME280;5401;41.986;21.452;2023-05-01T12:10:39;98328.91;;;25.95;35.40
10700;BME280;5401;41.986;21.452;2023-05-01T12:13:08;98334.47;;;26.03;35.44
10700;BME280;5401;41.986;21.452;2023-05-01T12:15:37;98330.38;;;25.57;35.40
10700;BME280;5401;41.986;21.452;2023-05-01T12:18:06;98324.22;;;25.47;35.72
10700;BME280;5401;41.986;21.452;2023-05-01T12:20:38;98302.50;;;25.50;35.85
10700;BME280;5401;41.986;21.452;2023-05-01T12:23:09;98317.31;;;25.63;35.75
10700;BME280;5401;41.986;21.452;2023-05-01T12:25:38;98313.25;;;25.74;35.87
10700;BME280;5401;41.986;21.452;2023-05-01T12:28:09;98315.38;;;25.98;35.84
10700;BME280;5401;41.986;21.452;2023-05-01T12:30:37;98300.59;;;26.29;35.34
10700;BME280;5401;41.986;21.452;2023-05-01T12:33:09;98301.28;;;26.56;34.92
10700;BME280;5401;41.986;21.452;2023-05-01T12:35:38;98289.13;;;26.27;35.41
10700;BME280;5401;41.986;21.452;2023-05-01T12:38:11;98299.34;;;26.35;34.86
10700;BME280;5401;41.986;21.452;2023-05-01T12:40:47;98298.13;;;26.19;35.07
10700;BME280;5401;41.986;21.452;2023-05-01T12:43:16;98293.06;;;26.35;34.97
10700;BME280;5401;41.986;21.452;2023-05-01T12:45:44;98294.38;;;26.37;35.49
10700;BME280;5401;41.986;21.452;2023-05-01T12:48:12;98298.56;;;26.35;34.77
10700;BME280;5401;41.986;21.452;2023-05-01T12:50:40;98289.81;;;26.11;35.34
10700;BME280;5401;41.986;21.452;2023-05-01T12:53:12;98291.88;;;26.06;35.51
10700;BME280;5401;41.986;21.452;2023-05-01T12:55:44;98285.19;;;25.98;35.22
10700;BME280;5401;41.986;21.452;2023-05-01T12:58:12;98291.09;;;26.14;35.07
10700;BME280;5401;41.986;21.452;2023-05-01T13:00:42;98288.25;;;25.97;35.15
10700;BME280;5401;41.986;21.452;2023-05-01T13:03:12;98294.63;;;25.84;35.23
10700;BME280;5401;41.986;21.452;2023-05-01T13:05:52;98286.63;;;25.74;35.38
10700;BME280;5401;41.986;21.452;2023-05-01T13:08:29;98291.84;;;25.62;35.73
10700;BME280;5401;41.986;21.452;2023-05-01T13:10:58;98280.13;;;25.70;35.23
10700;BME280;5401;41.986;21.452;2023-05-01T13:13:27;98283.00;;;25.87;35.27
10700;BME280;5401;41.986;21.452;2023-05-01T13:16:06;98273.28;;;25.81;35.07
10700;BME280;5401;41.986;21.452;2023-05-01T13:18:45;98279.22;;;25.96;35.34